createdAt,value
2022-09-15T00:05:56.420Z,11.96
2022-09-15T00:16:03.223Z,11.92
2022-09-15T00:26:24.098Z,11.86
2022-09-15T00:36:38.317Z,11.88
2022-09-15T00:47:21.455Z,11.86
2022-09-15T00:57:29.542Z,11.91
2022-09-15T01:07:42.470Z,11.94
2022-09-15T01:18:20.748Z,11.90
2022-09-15T01:29:50.787Z,12.07
2022-09-15T01:40:00.928Z,12.29
2022-09-15T01:50:23.530Z,12.41
2022-09-15T02:00:38.673Z,12.54
2022-09-15T02:11:05.955Z,12.64
2022-09-15T02:21:45.423Z,12.74
2022-09-15T02:31:55.721Z,12.87
2022-09-15T02:42:02.980Z,12.94
2022-09-15T02:52:18.783Z,13.01
2022-09-15T03:12:54.610Z,12.99
2022-09-15T03:23:04.915Z,12.97
2022-09-15T03:33:17.869Z,12.98
2022-09-15T03:43:48.991Z,12.95
2022-09-15T03:54:03.378Z,12.79
2022-09-15T04:04:15.890Z,12.80
2022-09-15T04:14:40.638Z,13.16
2022-09-15T05:20:27.725Z,14.73
2022-09-15T05:42:34.121Z,14.65
2022-09-15T07:33:38.987Z,16.98
2022-09-15T07:44:04.584Z,17.13
2022-09-15T07:54:38.857Z,16.84
2022-09-15T08:04:58.381Z,16.82
2022-09-15T08:36:22.877Z,18.14
2022-09-15T08:46:32.708Z,17.82
2022-09-15T08:56:44.855Z,16.95
2022-09-15T09:06:54.116Z,17.38
2022-09-15T09:17:23.521Z,17.19
2022-09-15T09:27:43.415Z,17.93
2022-09-15T09:37:52.961Z,18.53
2022-09-15T09:48:01.750Z,18.49
2022-09-15T09:58:24.347Z,18.17
2022-09-15T10:08:30.112Z,18.52
2022-09-15T10:18:37.234Z,18.40
2022-09-15T11:26:33.703Z,17.34
2022-09-15T12:11:44.115Z,18.13
2022-09-15T15:35:38.869Z,17.98
2022-09-15T16:07:39.919Z,17.65
2022-09-15T16:17:47.992Z,17.51
2022-09-15T16:28:05.533Z,17.45
2022-09-15T16:38:33.320Z,17.45
2022-09-15T17:21:03.921Z,17.30
2022-09-15T17:31:12.389Z,17.30
2022-09-15T17:41:15.607Z,17.35
2022-09-15T17:51:17.736Z,17.26
2022-09-15T18:01:19.450Z,17.09
2022-09-15T18:11:21.414Z,16.97
2022-09-15T18:21:25.318Z,16.96
2022-09-15T18:31:28.006Z,17.00
2022-09-15T18:41:30.196Z,16.99
2022-09-15T18:51:50.529Z,17.02
2022-09-15T19:01:54.274Z,17.10
2022-09-15T19:12:00.571Z,17.07
2022-09-15T19:22:12.046Z,17.16
2022-09-15T19:42:44.242Z,17.28
2022-09-15T19:53:34.816Z,17.23
2022-09-15T20:03:39.394Z,17.14
2022-09-15T20:13:44.799Z,16.95
2022-09-15T20:23:47.493Z,16.95
2022-09-15T20:33:49.546Z,17.13
2022-09-15T20:43:51.471Z,17.12
2022-09-15T20:53:54.352Z,17.10
2022-09-15T21:03:56.246Z,17.10
2022-09-15T21:13:57.914Z,16.88
2022-09-15T21:24:04.138Z,16.70
2022-09-15T21:34:05.946Z,16.34
2022-09-15T21:44:07.607Z,16.16
2022-09-15T21:54:10.108Z,16.31
2022-09-15T22:04:11.764Z,16.23
2022-09-15T22:14:14.437Z,16.41
2022-09-15T22:24:16.176Z,16.26
2022-09-15T22:34:17.815Z,16.24
2022-09-15T22:44:20.346Z,15.98
2022-09-15T22:54:23.865Z,16.17
2022-09-15T23:04:25.617Z,16.25
2022-09-15T23:14:27.443Z,15.92
2022-09-15T23:24:29.010Z,15.76
2022-09-15T23:34:30.705Z,15.74
2022-09-15T23:44:32.312Z,15.68
2022-09-15T23:54:34.002Z,15.57
